Time;durP1;ratioP1;P1;durP2;ratioP2;P2;SDS_P1;SDS_P2;PMS_P1;PMS_P2;Temp;Humidity;BMP_temperature;BMP_pressure;BME280_temperature;BME280_humidity;BME280_pressure;Samples;Min_cycle;Max_cycle;Signal;HPM_P1;HPM_P2
2023/09/11 07:01:39;;;;;;;0.10;0.10;;;24.30;99.90;27.20;101080.00;;;;6122308;22;4159362;-73
2023/09/11 07:04:10;;;;;;;2.63;2.08;;;24.20;99.90;26.10;101111.00;;;;6338057;22;20515;-73
2023/09/11 07:06:46;;;;;;;0.50;0.50;;;23.90;99.90;29.00;101145.00;;;;6338628;22;20140;-73
2023/09/11 07:09:14;;;;;;;0.82;0.82;;;24.80;99.90;28.40;101134.00;;;;6337939;22;20151;-73
2023/09/11 07:11:43;;;;;;;0.80;0.80;;;25.20;99.90;29.10;101135.00;;;;6339064;22;20144;-73
2023/09/11 07:14:12;;;;;;;1.77;1.52;;;25.60;99.90;29.10;101117.00;;;;6338700;22;20329;-73
2023/09/11 07:16:51;;;;;;;8.50;3.60;;;25.60;99.90;30.40;101155.00;;;;6313432;22;20583;-72
2023/09/11 07:19:22;;;;;;;0.63;0.63;;;26.60;99.90;28.50;101107.00;;;;6338712;22;20151;-72
2023/09/11 07:22:12;;;;;;;2.15;2.05;;;26.00;99.90;29.40;101130.00;;;;6312532;22;20155;-72
2023/09/11 07:24:47;;;;;;;3.92;2.30;;;25.90;99.90;28.70;101144.00;;;;6337778;22;20209;-75
2023/09/11 07:27:34;;;;;;;3.42;2.38;;;25.90;99.90;27.00;101119.00;;;;6312046;22;20155;-75
2023/09/11 07:30:18;;;;;;;2.70;2.50;;;25.10;99.90;27.60;101138.00;;;;6337595;22;20191;-75
2023/09/11 07:32:52;;;;;;;1.35;1.25;;;24.90;99.90;27.70;101135.00;;;;6338169;22;20266;-75
2023/09/11 07:35:18;;;;;;;3.92;2.72;;;24.80;99.90;27.50;101153.00;;;;6312008;22;20190;-69
2023/09/11 07:38:06;;;;;;;1.92;1.60;;;24.70;99.90;28.20;101152.00;;;;6338018;22;20155;-69
2023/09/11 07:40:47;;;;;;;1.55;1.55;;;25.00;99.90;30.10;101129.00;;;;6335669;22;20158;-70
2023/09/11 07:43:49;;;;;;;3.35;2.30;;;25.90;99.90;30.40;101205.00;;;;6336553;22;20191;-69
2023/09/11 07:46:35;;;;;;;1.35;1.20;;;26.90;99.90;29.70;101202.00;;;;6273491;22;20160;-69
2023/09/11 07:49:36;;;;;;;3.55;2.03;;;26.70;99.90;31.20;101248.00;;;;6311533;22;20155;-70
2023/09/11 07:52:22;;;;;;;10.55;4.10;;;27.50;99.90;32.20;101249.00;;;;6336043;22;20156;-69
2023/09/11 07:55:11;;;;;;;3.17;2.63;;;27.90;99.90;32.30;101266.00;;;;6337689;22;20151;-69
2023/09/11 07:57:57;;;;;;;0.10;0.10;;;28.50;99.90;32.70;101249.00;;;;6336229;22;20158;-69
2023/09/11 08:00:30;;;;;;;2.67;2.00;;;28.40;99.90;32.60;101275.00;;;;6338422;22;20167;-70
2023/09/11 08:03:26;;;;;;;0.38;0.38;;;28.60;99.90;35.00;101255.00;;;;6311348;22;20500;-70
2023/09/11 08:06:30;;;;;;;0.10;0.10;;;29.70;99.90;36.50;101233.00;;;;6311306;22;20144;-70
2023/09/11 08:09:13;;;;;;;0.40;0.40;;;31.10;99.90;37.00;101195.00;;;;6266339;22;20162;-70
2023/09/11 08:11:44;;;;;;;5.53;4.13;;;31.90;99.90;36.30;101237.00;;;;6311312;22;20244;-70
2023/09/11 08:14:33;;;;;;;4.32;2.80;;;32.20;99.90;30.40;101287.00;;;;6285954;22;20163;-70
2023/09/11 08:17:17;;;;;;;1.25;1.25;;;28.70;99.90;30.10;101302.00;;;;6311826;22;20222;-70
2023/09/11 08:20:03;;;;;;;1.48;1.38;;;27.60;99.90;33.10;101304.00;;;;6311549;22;20156;-69
2023/09/11 08:22:49;;;;;;;2.05;1.05;;;28.30;99.90;34.20;101292.00;;;;6311962;22;20696;-70
2023/09/11 08:25:37;;;;;;;1.95;1.80;;;29.40;99.90;30.90;101340.00;;;;6311451;22;20624;-69
2023/09/11 08:28:44;;;;;;;0.47;0.47;;;28.50;99.90;30.10;101321.00;;;;6311304;22;20187;-69
2023/09/11 08:31:19;;;;;;;3.10;1.77;;;27.30;99.90;31.10;101317.00;;;;6292236;22;20167;-69
2023/09/11 08:34:10;;;;;;;0.60;0.60;;;27.50;99.90;34.20;101276.00;;;;6285602;22;20576;-69
2023/09/11 08:37:11;;;;;;;0.60;0.60;;;28.80;99.90;31.50;101330.00;;;;6311785;22;20140;-69
2023/09/11 08:39:59;;;;;;;0.20;0.20;;;28.50;99.90;32.60;101302.00;;;;6311632;22;20151;-69
2023/09/11 08:43:02;;;;;;;0.93;0.55;;;28.60;99.90;30.70;101328.00;;;;6311060;22;20552;-69
2023/09/11 08:45:47;;;;;;;0.30;0.30;;;28.00;99.90;30.00;101255.00;;;;6311439;22;20151;-69
2023/09/11 08:48:32;;;;;;;4.35;2.97;;;26.90;99.90;31.30;101305.00;;;;6311157;22;20170;-69
2023/09/11 08:51:23;;;;;;;11.05;5.13;;;27.70;99.90;30.20;101299.00;;;;6339066;22;20162;-69
2023/09/11 08:54:09;;;;;;;1.73;1.60;;;27.20;99.90;31.40;101315.00;;;;6311514;22;20152;-69
2023/09/11 08:56:57;;;;;;;3.20;2.38;;;27.70;99.90;30.00;101308.00;;;;6339135;22;20181;-69
2023/09/11 08:59:37;;;;;;;1.23;1.13;;;27.30;99.90;30.20;101259.00;;;;6338464;22;20140;-69
2023/09/11 09:02:21;;;;;;;0.32;0.32;;;27.00;99.90;30.90;101305.00;;;;6311198;22;20212;-69
2023/09/11 09:05:06;;;;;;;0.80;0.75;;;27.60;99.90;30.70;101328.00;;;;6311226;22;20139;-70
2023/09/11 09:07:52;;;;;;;1.65;1.55;;;27.60;99.90;30.40;101302.00;;;;6311186;22;20184;-70
2023/09/11 09:10:39;;;;;;;1.08;1.08;;;27.20;99.90;30.80;101287.00;;;;6338341;22;20187;-75
2023/09/11 09:13:09;;;;;;;2.20;1.48;;;27.30;99.90;30.30;101295.00;;;;6285493;22;20156;-75
2023/09/11 09:15:44;;;;;;;5.35;2.80;;;27.20;99.90;30.30;101251.00;;;;6310980;22;20159;-74
2023/09/11 09:18:11;;;;;;;0.10;0.10;;;26.90;99.90;33.00;101295.00;;;;6285697;22;20162;-75
2023/09/11 09:20:38;;;;;;;0.73;0.73;;;28.10;99.90;34.20;101294.00;;;;6283676;22;20205;-75
2023/09/11 09:23:06;;;;;;;1.17;1.17;;;29.30;99.90;34.60;101286.00;;;;6308251;22;20212;-75
2023/09/11 09:25:38;;;;;;;1.98;1.67;;;29.90;99.90;32.30;101317.00;;;;6283761;22;20548;-75
2023/09/11 09:28:26;;;;;;;2.20;1.88;;;29.30;99.90;31.90;101326.00;;;;6283516;22;20147;-75
2023/09/11 09:30:58;;;;;;;1.17;1.17;;;29.10;99.90;33.80;101302.00;;;;6309881;22;20140;-75
2023/09/11 09:33:27;;;;;;;0.38;0.38;;;29.20;99.90;35.20;101266.00;;;;6285134;22;20147;-74
2023/09/11 09:35:55;;;;;;;0.10;0.10;;;30.00;99.90;35.90;101264.00;;;;6311195;22;20139;-75
2023/09/11 09:38:21;;;;;;;2.05;1.85;;;30.90;99.90;36.50;101243.00;;;;6310642;22;20135;-74
2023/09/11 09:41:10;;;;;;;2.65;2.05;;;31.50;99.90;35.70;101252.00;;;;6311051;22;20159;-75
2023/09/11 09:43:36;;;;;;;0.90;0.90;;;31.80;99.90;35.90;101241.00;;;;6310436;22;20176;-74
2023/09/11 09:46:18;;;;;;;0.10;0.10;;;31.50;99.90;36.70;101232.00;;;;6337857;22;20144;-75
2023/09/11 09:48:45;;;;;;;0.10;0.10;;;31.80;99.90;37.30;101195.00;;;;6311051;22;20144;-75
2023/09/11 09:51:10;;;;;;;0.10;0.10;;;32.40;99.90;37.70;101229.00;;;;6285067;22;20217;-75
2023/09/11 09:53:49;;;;;;;1.27;1.27;;;32.70;99.90;36.30;101247.00;;;;6310316;22;20140;-75
2023/09/11 09:56:18;;;;;;;1.85;1.42;;;32.20;99.90;36.30;101244.00;;;;6284710;22;20238;-75
2023/09/11 09:58:47;;;;;;;6.00;1.95;;;32.00;99.90;32.70;101316.00;;;;6310474;22;20144;-74
2023/09/11 10:01:16;;;;;;;0.38;0.38;;;30.30;99.90;31.30;101362.00;;;;6329755;22;20175;-74
2023/09/11 10:03:46;;;;;;;0.40;0.40;;;28.80;99.90;33.90;101312.00;;;;6336638;22;20186;-74
2023/09/11 10:06:44;;;;;;;0.10;0.10;;;29.20;99.90;35.60;101245.00;;;;6310522;22;20243;-75
2023/09/11 10:09:19;;;;;;;0.40;0.40;;;30.40;99.90;36.80;101272.00;;;;6333206;22;20167;-74
2023/09/11 10:12:15;;;;;;;0.10;0.10;;;31.50;99.90;37.00;101256.00;;;;6336815;22;20595;-75
2023/09/11 10:14:41;;;;;;;2.67;1.92;;;32.10;99.90;36.20;101257.00;;;;6335669;22;20162;-75
2023/09/11 10:17:07;;;;;;;1.85;1.75;;;32.20;99.90;33.00;101323.00;;;;6336679;22;20223;-75
2023/09/11 10:19:34;;;;;;;0.68;0.63;;;30.80;99.90;35.50;101273.00;;;;6336843;22;20136;-73
2023/09/11 10:33:29;;;;;;;0.52;0.52;;;28.40;99.90;32.40;101325.00;;;;5057891;28;20631;-77
2023/09/11 10:36:08;;;;;;;0.47;0.47;;;28.70;99.90;33.80;101299.00;;;;5046384;28;20658;-80
2023/09/11 10:39:04;;;;;;;1.13;0.95;;;29.80;99.90;32.60;101299.00;;;;5026433;28;20195;-80
2023/09/11 10:41:37;;;;;;;2.08;1.35;;;29.80;99.90;35.40;101260.00;;;;5023257;28;20241;-80
2023/09/11 10:44:27;;;;;;;0.10;0.10;;;30.50;99.90;35.00;101259.00;;;;5032422;28;20184;-80
2023/09/11 10:47:19;;;;;;;0.10;0.10;;;31.30;99.90;36.70;101215.00;;;;5056546;28;20187;-80
2023/09/11 10:50:03;;;;;;;0.20;0.20;;;31.80;99.90;35.90;101235.00;;;;5052356;28;20183;-80
2023/09/11 10:52:55;;;;;;;0.65;0.55;;;31.90;99.90;35.60;101257.00;;;;5025044;28;20211;-86
2023/09/11 10:55:42;;;;;;;0.10;0.10;;;31.20;99.90;37.20;101232.00;;;;5026942;28;20191;-74
2023/09/11 10:58:21;;;;;;;0.40;0.40;;;32.20;99.90;37.80;101219.00;;;;5026908;28;20187;-71
2023/09/11 11:01:08;;;;;;;0.30;0.30;;;32.80;99.90;38.60;101194.00;;;;5043992;28;20193;-73
2023/09/11 11:04:16;;;;;;;0.10;0.10;;;33.60;99.90;38.20;101204.00;;;;5061398;28;20205;-78
2023/09/11 11:07:07;;;;;;;0.10;0.10;;;33.70;99.90;38.10;101196.00;;;;5046715;28;20187;-77
2023/09/11 11:10:00;;;;;;;0.10;0.10;;;33.70;99.90;38.50;101212.00;;;;5011518;28;20249;-77
2023/09/11 11:13:16;;;;;;;0.15;0.15;;;33.80;99.90;38.20;101219.00;;;;5002292;28;20211;-77
2023/09/11 11:16:19;;;;;;;1.17;1.17;;;33.70;99.90;38.10;101197.00;;;;5015619;28;20203;-77
2023/09/11 11:19:28;;;;;;;0.10;0.10;;;33.40;99.90;38.60;101212.00;;;;5044153;28;20198;-79
2023/09/11 11:22:00;;;;;;;0.20;0.20;;;33.70;99.90;39.10;101198.00;;;;5027836;28;20202;-77
2023/09/11 11:24:34;;;;;;;0.20;0.20;;;34.20;99.90;38.80;101202.00;;;;5044640;28;20246;-78
2023/09/11 11:27:22;;;;;;;0.55;0.55;;;34.10;99.90;35.10;101268.00;;;;5050724;28;20182;-80
2023/09/11 11:29:56;;;;;;;0.28;0.28;;;32.10;99.90;36.40;101246.00;;;;5046529;28;20191;-80
2023/09/11 11:32:26;;;;;;;0.10;0.10;;;32.00;99.90;37.30;101235.00;;;;5057696;28;20227;-80
2023/09/11 11:34:57;;;;;;;0.10;0.10;;;32.50;99.90;37.50;101241.00;;;;5024474;28;20190;-78
2023/09/11 11:37:52;;;;;;;0.38;0.38;;;32.80;99.90;37.70;101239.00;;;;5022866;28;20186;-78
2023/09/11 11:40:19;;;;;;;0.55;0.55;;;33.00;99.90;38.50;101223.00;;;;5037170;28;20277;-78
2023/09/11 11:43:03;;;;;;;0.70;0.70;;;33.40;99.90;37.00;101251.00;;;;5025071;28;20660;-78
2023/09/11 11:45:43;;;;;;;0.30;0.30;;;32.90;99.90;37.10;101255.00;;;;5006441;28;20957;-77
2023/09/11 11:48:11;;;;;;;2.63;0.75;;;33.00;99.90;37.50;101243.00;;;;5010011;28;20235;-77
2023/09/11 11:50:49;;;;;;;0.10;0.10;;;32.90;99.90;37.50;101235.00;;;;5014916;28;20203;-78
2023/09/11 11:53:23;;;;;;;0.13;0.13;;;33.00;99.90;37.30;101251.00;;;;5019341;28;20211;-78
2023/09/11 11:55:56;;;;;;;0.38;0.38;;;33.00;99.90;37.60;101257.00;;;;5020494;28;20186;-73
2023/09/11 11:58:23;;;;;;;0.40;0.40;;;32.90;99.90;37.00;101261.00;;;;5032237;28;20737;-73
2023/09/11 12:01:04;;;;;;;0.10;0.10;;;32.70;99.90;36.70;101276.00;;;;5024713;28;20199;-73
2023/09/11 12:03:54;;;;;;;0.05;0.05;;;32.40;99.90;37.10;101275.00;;;;5030140;28;20249;-73
2023/09/11 12:06:25;;;;;;;1.55;1.50;;;32.40;99.90;36.80;101270.00;;;;5013616;28;20238;-73
2023/09/11 12:08:54;;;;;;;0.20;0.20;;;32.40;99.90;37.20;101269.00;;;;5020193;28;20653;-73
2023/09/11 12:11:26;;;;;;;0.20;0.20;;;32.40;99.90;37.00;101280.00;;;;5012129;28;20188;-73
2023/09/11 12:13:52;;;;;;;0.10;0.10;;;32.30;99.90;36.90;101287.00;;;;5030995;28;20254;-69
2023/09/11 12:16:23;;;;;;;1.30;1.25;;;32.20;99.90;36.20;101265.00;;;;5015269;28;20706;-74
2023/09/11 12:18:51;;;;;;;0.60;0.57;;;32.10;99.90;35.60;101301.00;;;;5019058;28;20646;-75
2023/09/11 12:21:24;;;;;;;0.57;0.57;;;31.50;99.90;36.30;101296.00;;;;5031273;28;20233;-71
2023/09/11 12:23:50;;;;;;;0.15;0.15;;;31.70;99.90;36.80;101291.00;;;;5033694;28;20708;-71
2023/09/11 12:26:16;;;;;;;0.13;0.13;;;31.90;99.90;35.80;101304.00;;;;5010605;28;20266;-72
2023/09/11 12:28:45;;;;;;;7.93;1.67;;;31.40;99.90;35.50;101283.00;;;;5036332;28;20873;-70
2023/09/11 12:31:10;;;;;;;3.45;1.67;;;31.30;99.90;34.20;101339.00;;;;5019773;28;21001;-72
2023/09/11 12:33:36;;;;;;;2.30;2.10;;;30.90;99.90;32.90;101319.00;;;;5036051;28;20193;-72
2023/09/11 12:36:10;;;;;;;0.10;0.10;;;29.70;99.90;34.70;101292.00;;;;5020279;28;20188;-72
2023/09/11 12:38:45;;;;;;;0.20;0.20;;;29.90;99.90;35.00;101311.00;;;;5022848;28;20182;-75
2023/09/11 12:41:14;;;;;;;3.22;1.85;;;30.40;99.90;34.50;101313.00;;;;5010671;28;20222;-73
2023/09/11 12:43:49;;;;;;;0.77;0.77;;;30.50;99.90;33.80;101337.00;;;;5013316;28;20183;-74
2023/09/11 12:46:22;;;;;;;8.60;2.38;;;30.00;99.90;34.00;101339.00;;;;5009872;28;20175;-76
2023/09/11 12:48:51;;;;;;;0.15;0.15;;;30.00;99.90;34.70;101333.00;;;;5036628;28;20558;-76
2023/09/11 12:51:18;;;;;;;0.20;0.20;;;30.20;99.90;35.40;101339.00;;;;5012798;28;20192;-76
2023/09/11 12:53:56;;;;;;;0.50;0.50;;;30.60;99.90;35.30;101338.00;;;;5019084;28;20231;-76
2023/09/11 12:56:41;;;;;;;0.20;0.20;;;30.70;99.90;34.80;101306.00;;;;5016151;28;20255;-75
2023/09/11 12:59:34;;;;;;;0.93;0.93;;;30.60;99.90;35.50;101332.00;;;;5017596;28;20183;-76
2023/09/11 13:02:17;;;;;;;0.68;0.68;;;30.70;99.90;34.80;101345.00;;;;5018767;28;20195;-76
2023/09/11 13:05:01;;;;;;;0.10;0.10;;;30.70;99.90;35.70;101323.00;;;;5018771;28;20201;-76
2023/09/11 13:07:52;;;;;;;0.10;0.10;;;30.90;99.90;36.10;101321.00;;;;5019674;28;20282;-76
2023/09/11 13:10:26;;;;;;;0.10;0.10;;;31.30;99.90;36.10;101311.00;;;;5016778;28;20733;-75
2023/09/11 13:13:09;;;;;;;0.30;0.30;;;31.40;99.90;36.10;101286.00;;;;5018549;28;20270;-76
2023/09/11 13:15:56;;;;;;;1.83;1.73;;;31.50;99.90;36.40;101280.00;;;;5017974;28;20277;-76
2023/09/11 13:18:39;;;;;;;0.10;0.10;;;31.70;99.90;36.00;101282.00;;;;5017463;28;20191;-76
2023/09/11 13:21:23;;;;;;;0.45;0.40;;;31.50;99.90;35.70;101296.00;;;;5017392;28;20184;-76
2023/09/11 13:24:00;;;;;;;2.20;1.25;;;31.40;99.90;35.40;101327.00;;;;5018801;28;20514;-76
2023/09/11 13:26:29;;;;;;;0.52;0.52;;;31.00;99.90;34.90;101332.00;;;;5018196;28;20202;-76
2023/09/11 13:28:57;;;;;;;1.00;0.55;;;31.00;99.90;35.90;101288.00;;;;5016833;28;20310;-75
2023/09/11 13:31:41;;;;;;;3.40;1.00;;;31.20;99.90;34.30;101309.00;;;;5017377;28;20222;-75
2023/09/11 13:34:24;;;;;;;0.10;0.10;;;30.80;99.90;35.20;101340.00;;;;5017166;28;21097;-76
2023/09/11 13:37:08;;;;;;;0.30;0.30;;;30.90;99.90;35.70;101337.00;;;;5016868;28;20263;-75
2023/09/11 13:39:51;;;;;;;2.28;1.77;;;31.00;99.90;35.10;101351.00;;;;5016981;28;20180;-76
2023/09/11 13:42:42;;;;;;;0.10;0.10;;;31.00;99.90;35.50;101341.00;;;;5017805;28;20191;-75
2023/09/11 13:45:35;;;;;;;0.10;0.10;;;31.00;99.90;35.20;101366.00;;;;5034473;28;20195;-76
2023/09/11 13:48:09;;;;;;;0.95;0.57;;;31.00;99.90;35.10;101356.00;;;;5017185;28;20186;-76
2023/09/11 13:51:00;;;;;;;0.80;0.57;;;30.80;99.90;35.40;101376.00;;;;5016766;28;20174;-75
2023/09/11 13:53:48;;;;;;;0.10;0.10;;;30.90;99.90;35.60;101372.00;;;;5017286;28;20337;-75
2023/09/11 13:56:39;;;;;;;0.95;0.95;;;31.00;99.90;35.20;101336.00;;;;5033553;28;20190;-76
2023/09/11 13:59:48;;;;;;;0.10;0.10;;;30.90;99.90;35.40;101368.00;;;;5017575;28;20179;-75
2023/09/11 14:02:20;;;;;;;0.10;0.10;;;31.00;99.90;35.10;101378.00;;;;5017449;28;20267;-75
2023/09/11 14:04:55;;;;;;;2.67;1.35;;;30.80;99.90;33.70;101398.00;;;;5017911;28;20206;-76
2023/09/11 14:07:51;;;;;;;0.10;0.10;;;30.40;99.90;33.90;101373.00;;;;5017946;28;20663;-76
2023/09/11 14:10:44;;;;;;;0.10;0.10;;;29.90;99.90;34.20;101369.00;;;;5016916;28;20210;-75
2023/09/11 14:13:35;;;;;;;4.68;2.72;;;29.80;99.90;34.00;101336.00;;;;5015515;28;20202;-76
2023/09/11 14:16:30;;;;;;;0.10;0.10;;;29.70;99.90;33.90;101359.00;;;;5016281;28;20185;-76
2023/09/11 14:19:50;;;;;;;3.70;2.13;;;29.60;99.90;33.00;101362.00;;;;5016912;28;20214;-76
2023/09/11 14:22:19;;;;;;;2.20;1.48;;;29.40;99.90;33.50;101300.00;;;;5019313;28;20185;-75
2023/09/11 14:24:54;;;;;;;1.55;0.43;;;29.10;99.90;33.80;101335.00;;;;5016489;28;20192;-75
2023/09/11 14:27:28;;;;;;;0.93;0.93;;;29.30;99.90;33.40;101356.00;;;;5015311;28;20549;-76
2023/09/11 14:29:54;;;;;;;0.28;0.28;;;29.50;99.90;33.20;101338.00;;;;5032793;28;20213;-76
2023/09/11 14:32:41;;;;;;;0.88;0.82;;;29.30;99.90;33.40;101328.00;;;;5017585;28;20700;-75
2023/09/11 14:35:26;;;;;;;0.10;0.10;;;29.30;99.90;33.60;101325.00;;;;5018045;28;20194;-76
2023/09/11 14:37:54;;;;;;;0.10;0.10;;;29.30;99.90;34.00;101327.00;;;;5016300;28;20189;-75
2023/09/11 14:40:23;;;;;;;0.65;0.47;;;29.50;99.90;33.90;101321.00;;;;5015927;28;20223;-75
2023/09/11 14:43:12;;;;;;;0.47;0.47;;;29.50;99.90;33.40;101323.00;;;;5017676;28;20187;-75
2023/09/11 14:46:18;;;;;;;0.20;0.20;;;29.30;99.90;33.70;101289.00;;;;5018115;28;20187;-75
2023/09/11 14:49:14;;;;;;;0.40;0.40;;;29.20;99.90;33.20;101305.00;;;;5017438;28;20190;-75
2023/09/11 14:52:19;;;;;;;1.33;1.23;;;29.00;99.90;32.10;101289.00;;;;5015992;28;20207;-75
2023/09/11 14:54:50;;;;;;;2.83;2.63;;;28.60;99.90;31.50;101241.00;;;;5016960;28;20187;-75
2023/09/11 14:57:39;;;;;;;4.18;3.83;;;28.00;99.90;30.70;101227.00;;;;5017058;28;20180;-75
2023/09/11 15:00:14;;;;;;;1.65;1.55;;;27.60;99.90;31.40;101210.00;;;;5016998;28;20657;-75
2023/09/11 15:03:03;;;;;;;3.35;1.83;;;27.60;99.90;30.00;101166.00;;;;5015938;28;20692;-73
2023/09/11 15:05:38;;;;;;;0.95;0.80;;;27.40;99.90;30.00;101113.00;;;;5016549;28;21068;-73
2023/09/11 15:08:26;;;;;;;3.10;1.75;;;26.90;99.90;28.60;101112.00;;;;5017718;28;20179;-73
2023/09/11 15:11:19;;;;;;;2.63;1.95;;;26.40;99.90;28.20;101104.00;;;;5016660;28;20180;-72
2023/09/11 15:14:02;;;;;;;0.57;0.57;;;25.90;99.90;28.30;101089.00;;;;5016523;28;20195;-75
2023/09/11 15:16:48;;;;;;;4.50;2.42;;;25.50;99.90;27.50;101082.00;;;;5016111;28;20191;-75
2023/09/11 15:19:39;;;;;;;0.90;0.90;;;25.30;99.90;27.90;101084.00;;;;5016416;28;20322;-75
2023/09/11 15:22:10;;;;;;;1.40;0.63;;;25.10;99.90;28.50;101101.00;;;;5020361;28;20224;-75
2023/09/11 15:25:14;;;;;;;0.90;0.90;;;25.20;99.90;28.50;101087.00;;;;5020562;28;20622;-75
2023/09/11 15:28:30;;;;;;;0.30;0.30;;;25.20;99.90;28.70;101081.00;;;;5019379;28;20329;-75
2023/09/11 15:31:35;;;;;;;1.17;1.00;;;25.40;99.90;29.10;101080.00;;;;5019026;28;20166;-75
2023/09/11 15:34:38;;;;;;;0.13;0.13;;;25.50;99.90;28.70;101074.00;;;;5020385;28;20654;-75
2023/09/11 15:37:32;;;;;;;0.10;0.10;;;25.30;99.90;28.50;101074.00;;;;5023391;28;20265;-75
2023/09/11 15:40:36;;;;;;;1.00;0.90;;;25.50;99.90;29.50;101075.00;;;;5020067;28;20195;-76
2023/09/11 15:43:42;;;;;;;1.25;1.13;;;25.80;99.90;28.40;101060.00;;;;5019769;28;20203;-75
2023/09/11 15:46:46;;;;;;;0.10;0.10;;;25.70;99.90;28.70;101082.00;;;;5017020;28;20195;-75
2023/09/11 15:49:51;;;;;;;0.40;0.40;;;25.40;99.90;29.90;101091.00;;;;5011078;28;20183;-73
2023/09/11 15:52:43;;;;;;;4.18;2.08;;;25.90;99.90;30.60;101114.00;;;;5015489;28;20219;-73
2023/09/11 15:55:54;;;;;;;3.40;2.72;;;26.40;99.90;30.40;101130.00;;;;5033581;28;20682;-73
2023/09/11 15:59:05;;;;;;;0.10;0.10;;;26.60;99.90;29.40;101071.00;;;;5057182;28;20194;-73
2023/09/11 16:02:09;;;;;;;0.10;0.10;;;26.20;99.90;30.30;101130.00;;;;5004381;28;20201;-73
2023/09/11 16:04:53;;;;;;;0.43;0.43;;;26.40;99.90;29.00;101107.00;;;;5024864;28;20574;-73
2023/09/11 16:07:37;;;;;;;1.75;0.88;;;26.00;99.90;30.50;101108.00;;;;5029564;28;20543;-73
2023/09/11 16:10:21;;;;;;;0.10;0.10;;;26.20;99.90;30.50;101139.00;;;;5013455;28;20180;-73
2023/09/11 16:13:05;;;;;;;2.40;1.95;;;26.50;99.90;29.50;101106.00;;;;5035600;28;20237;-73
2023/09/11 16:15:38;;;;;;;1.08;1.08;;;26.10;99.90;27.80;101077.00;;;;5020000;28;20191;-75
2023/09/11 16:18:25;;;;;;;2.20;1.75;;;25.60;99.90;27.60;101076.00;;;;5018974;28;20175;-75
2023/09/11 16:21:08;;;;;;;1.65;1.55;;;25.00;99.90;27.70;101087.00;;;;5019799;28;20269;-75
2023/09/11 16:23:51;;;;;;;0.20;0.20;;;24.80;99.90;28.50;101096.00;;;;5035871;28;20214;-75
2023/09/11 16:26:17;;;;;;;1.52;1.40;;;25.00;99.90;28.50;101072.00;;;;5019828;28;20293;-76
2023/09/11 16:29:07;;;;;;;0.20;0.20;;;25.20;99.90;29.60;101099.00;;;;5020736;28;20218;-75
2023/09/11 16:32:08;;;;;;;0.10;0.10;;;25.40;99.90;29.30;101093.00;;;;5018916;28;20215;-75
2023/09/11 16:34:36;;;;;;;0.20;0.20;;;25.70;99.90;29.20;101102.00;;;;5020306;28;20178;-75
2023/09/11 16:37:27;;;;;;;0.65;0.47;;;25.60;99.90;28.80;101102.00;;;;5019782;28;20195;-75
2023/09/11 16:40:00;;;;;;;0.10;0.10;;;25.20;99.90;29.80;101084.00;;;;5019288;28;20274;-75
2023/09/11 16:42:40;;;;;;;0.10;0.10;;;25.50;99.90;29.60;101078.00;;;;5018798;28;20241;-75
2023/09/11 16:45:23;;;;;;;0.25;0.25;;;25.60;99.90;30.20;101128.00;;;;5019228;28;20187;-73
2023/09/11 16:48:44;;;;;;;0.10;0.10;;;25.90;99.90;30.20;101157.00;;;;5018528;28;20648;-73
2023/09/11 16:51:38;;;;;;;0.40;0.40;;;26.10;99.90;30.20;101159.00;;;;5019000;28;20183;-73
2023/09/11 16:54:15;;;;;;;0.20;0.20;;;26.10;99.90;30.30;101174.00;;;;5018998;28;20286;-73
2023/09/11 16:56:56;;;;;;;0.57;0.57;;;26.30;99.90;30.90;101186.00;;;;5019204;28;20178;-73
2023/09/11 16:59:22;;;;;;;0.40;0.40;;;26.40;99.90;30.10;101140.00;;;;5019563;28;20317;-73
2023/09/11 17:02:08;;;;;;;0.65;0.65;;;26.10;99.90;29.90;101145.00;;;;5015736;28;20337;-73
2023/09/11 17:05:02;;;;;;;0.80;0.80;;;26.00;99.90;29.80;101138.00;;;;5027290;28;20207;-73
2023/09/11 17:07:57;;;;;;;0.10;0.10;;;25.90;99.90;29.80;101141.00;;;;5010517;28;20206;-73
2023/09/11 17:10:54;;;;;;;0.77;0.77;;;25.70;99.90;30.00;101137.00;;;;5010540;28;20241;-73
2023/09/11 17:13:55;;;;;;;0.10;0.10;;;25.80;99.90;30.00;101139.00;;;;5011674;28;20207;-73
2023/09/11 17:16:58;;;;;;;0.30;0.30;;;25.80;99.90;30.50;101157.00;;;;5018182;28;20184;-73
2023/09/11 17:19:45;;;;;;;0.22;0.22;;;26.10;99.90;30.10;101167.00;;;;5012105;28;20198;-73
2023/09/11 17:22:48;;;;;;;0.10;0.10;;;26.10;99.90;29.80;101158.00;;;;5007755;28;20195;-73
2023/09/11 17:25:38;;;;;;;0.57;0.57;;;25.80;99.90;29.90;101148.00;;;;5029388;28;20198;-73
2023/09/11 17:28:48;;;;;;;0.20;0.20;;;25.90;99.90;29.30;101137.00;;;;5007253;28;20243;-73
2023/09/11 17:31:34;;;;;;;0.17;0.17;;;25.60;99.90;29.60;101105.00;;;;5012006;28;20339;-73
2023/09/11 17:34:22;;;;;;;0.50;0.50;;;25.50;99.90;29.70;101152.00;;;;5016951;28;20187;-73
2023/09/11 17:37:04;;;;;;;0.22;0.22;;;25.60;99.90;29.50;101112.00;;;;5015484;28;20726;-72
2023/09/11 17:39:42;;;;;;;0.20;0.20;;;25.40;99.90;29.40;101144.00;;;;5011969;28;20191;-76
2023/09/11 17:42:28;;;;;;;0.15;0.15;;;25.40;99.90;29.50;101157.00;;;;5037764;28;20187;-76
2023/09/11 17:45:14;;;;;;;0.20;0.20;;;25.40;99.90;29.50;101138.00;;;;4988583;28;20195;-75
2023/09/11 17:47:54;;;;;;;0.20;0.20;;;25.40;99.90;29.60;101132.00;;;;5024631;28;20215;-75
2023/09/11 17:50:42;;;;;;;1.20;1.17;;;25.40;99.90;29.50;101140.00;;;;5019020;28;20225;-75
2023/09/11 17:53:19;;;;;;;1.65;1.10;;;25.40;99.90;29.40;101141.00;;;;5017311;28;20235;-74
2023/09/11 17:55:51;;;;;;;0.15;0.15;;;25.40;99.90;29.20;101086.00;;;;5017679;28;20270;-75
2023/09/11 17:58:32;;;;;;;0.40;0.40;;;25.20;99.90;29.50;101119.00;;;;5017901;28;20257;-70
2023/09/11 18:01:28;;;;;;;0.20;0.20;;;25.30;99.90;28.90;101114.00;;;;5017494;28;20183;-70
2023/09/11 18:04:42;;;;;;;0.20;0.20;;;25.00;99.90;28.80;101113.00;;;;5016694;28;20655;-72
2023/09/11 18:07:51;;;;;;;0.35;0.35;;;24.90;99.90;29.10;101077.00;;;;5006195;28;20545;-73
2023/09/11 18:10:51;;;;;;;0.20;0.20;;;25.00;99.90;29.50;101118.00;;;;5016894;28;20209;-72
2023/09/11 18:13:56;;;;;;;0.10;0.10;;;25.10;99.90;29.20;101107.00;;;;5018272;28;20210;-73
2023/09/11 18:16:57;;;;;;;0.20;0.20;;;25.10;99.90;29.40;101117.00;;;;5019601;28;20194;-72
2023/09/11 18:19:43;;;;;;;0.20;0.20;;;25.20;99.90;29.30;101132.00;;;;5019955;28;20186;-72
2023/09/11 18:22:34;;;;;;;0.28;0.28;;;25.10;99.90;28.60;101110.00;;;;5018521;28;20209;-72
2023/09/11 18:25:08;;;;;;;0.20;0.20;;;24.70;99.90;29.10;101130.00;;;;5017773;28;20185;-72
2023/09/11 18:28:09;;;;;;;0.50;0.50;;;24.80;99.90;29.10;101121.00;;;;5018684;28;20187;-73
2023/09/11 18:31:02;;;;;;;0.20;0.20;;;24.70;99.90;28.90;101124.00;;;;5017222;28;20673;-73
2023/09/11 18:34:11;;;;;;;0.20;0.20;;;24.80;99.90;29.20;101130.00;;;;5018461;28;20225;-72
2023/09/11 18:37:18;;;;;;;0.85;0.85;;;24.90;99.90;27.30;101115.00;;;;5018323;28;20246;-72
2023/09/11 18:40:05;;;;;;;0.98;0.95;;;24.70;99.90;26.40;101094.00;;;;5000284;28;20198;-72
2023/09/11 18:43:06;;;;;;;1.33;1.23;;;23.90;99.90;26.40;101103.00;;;;5017405;28;20658;-72
2023/09/11 18:45:49;;;;;;;0.25;0.25;;;23.50;99.90;27.70;101142.00;;;;5020671;28;20193;-72
2023/09/11 18:48:43;;;;;;;0.20;0.20;;;23.70;99.90;28.10;101156.00;;;;5019728;28;20641;-72
2023/09/11 18:51:28;;;;;;;1.42;1.33;;;24.00;99.90;27.80;101131.00;;;;5034524;28;20210;-72
2023/09/11 18:54:15;;;;;;;0.15;0.15;;;23.90;99.90;27.00;101112.00;;;;5036142;28;20183;-72
2023/09/11 18:56:50;;;;;;;0.20;0.20;;;23.80;99.90;27.30;101152.00;;;;5039086;28;20215;-72
2023/09/11 18:59:16;;;;;;;2.10;1.95;;;23.60;99.90;28.00;101166.00;;;;5021751;28;20262;-72
2023/09/11 19:02:02;;;;;;;0.20;0.20;;;23.80;99.90;27.20;101130.00;;;;5021235;28;20245;-72
2023/09/11 19:04:29;;;;;;;0.20;0.20;;;23.70;99.90;27.90;101172.00;;;;5022650;28;20198;-72
2023/09/11 19:07:04;;;;;;;0.30;0.30;;;23.90;99.90;28.60;101163.00;;;;5022908;28;20184;-72
2023/09/11 19:09:54;;;;;;;0.20;0.20;;;24.20;99.90;28.00;101174.00;;;;5021101;28;20591;-72
2023/09/11 19:12:41;;;;;;;0.20;0.20;;;24.30;99.90;27.60;101163.00;;;;5020298;28;20198;-72